createdAt,value
2022-08-25T00:00:22.388Z,2.40
2022-08-25T00:02:55.193Z,2.47
2022-08-25T00:05:26.061Z,1.95
2022-08-25T00:07:54.251Z,1.63
2022-08-25T00:10:21.330Z,0.98
2022-08-25T00:12:48.040Z,2.30
2022-08-25T00:15:14.580Z,9.32
2022-08-25T00:17:41.403Z,1.73
2022-08-25T00:20:09.810Z,2.03
2022-08-25T00:22:36.469Z,6.15
2022-08-25T00:25:06.546Z,1.10
2022-08-25T00:27:33.234Z,3.10
2022-08-25T00:30:00.365Z,3.22
2022-08-25T00:32:27.166Z,4.45
2022-08-25T00:34:53.734Z,4.72
2022-08-25T00:37:20.884Z,2.55
2022-08-25T00:39:48.320Z,1.10
2022-08-25T00:42:16.496Z,1.00
2022-08-25T00:44:43.809Z,1.95
2022-08-25T00:47:10.667Z,5.22
2022-08-25T00:49:44.616Z,3.85
2022-08-25T00:52:15.075Z,2.28
2022-08-25T00:54:50.286Z,4.40
2022-08-25T00:57:22.090Z,3.53
2022-08-25T01:00:01.967Z,3.17
2022-08-25T01:02:28.590Z,0.70
2022-08-25T01:04:55.192Z,2.75
2022-08-25T01:07:24.104Z,1.83
2022-08-25T01:09:53.337Z,1.20
2022-08-25T01:12:20.869Z,1.88
2022-08-25T01:14:50.007Z,2.13
2022-08-25T01:17:17.071Z,3.60
2022-08-25T01:19:44.522Z,1.45
2022-08-25T01:22:12.486Z,2.00
2022-08-25T01:24:52.771Z,1.35
2022-08-25T01:27:19.597Z,3.47
2022-08-25T01:29:46.235Z,4.85
2022-08-25T01:32:14.910Z,4.35
2022-08-25T01:34:44.928Z,4.00
2022-08-25T01:37:13.958Z,1.45
2022-08-25T01:39:41.717Z,7.75
2022-08-25T01:42:11.384Z,4.57
2022-08-25T01:44:40.993Z,5.07
2022-08-25T01:47:08.560Z,2.90
2022-08-25T01:49:36.060Z,4.13
2022-08-25T01:52:13.457Z,4.80
2022-08-25T01:54:40.078Z,3.47
2022-08-25T01:57:06.936Z,2.65
2022-08-25T01:59:33.633Z,1.90
2022-08-25T02:02:00.766Z,2.88
2022-08-25T02:04:32.634Z,2.63
2022-08-25T02:07:06.498Z,1.63
2022-08-25T02:09:34.643Z,2.42
2022-08-25T02:12:01.259Z,2.58
2022-08-25T02:14:28.586Z,5.95
2022-08-25T02:16:56.756Z,2.65
2022-08-25T02:19:26.289Z,2.30
2022-08-25T02:21:54.113Z,7.75
2022-08-25T02:24:20.908Z,3.42
2022-08-25T02:26:47.735Z,1.15
2022-08-25T02:29:14.562Z,7.10
2022-08-25T02:31:41.217Z,8.60
2022-08-25T02:34:12.462Z,3.53
2022-08-25T02:36:40.235Z,5.45
2022-08-25T02:39:09.383Z,7.88
2022-08-25T02:41:36.162Z,8.77
2022-08-25T02:44:04.466Z,5.20
2022-08-25T02:46:31.772Z,5.03
2022-08-25T02:48:59.573Z,4.25
2022-08-25T02:51:30.056Z,9.10
2022-08-25T02:54:02.156Z,6.70
2022-08-25T02:56:30.377Z,9.23
2022-08-25T02:58:57.158Z,9.32
2022-08-25T03:01:28.434Z,5.65
2022-08-25T03:03:56.882Z,10.23
2022-08-25T03:06:24.161Z,10.00
2022-08-25T03:08:52.526Z,4.88
2022-08-25T03:11:19.765Z,8.15
2022-08-25T03:13:46.710Z,16.77
2022-08-25T03:16:14.535Z,8.10
2022-08-25T03:18:42.660Z,10.77
2022-08-25T03:21:11.626Z,6.40
2022-08-25T03:23:39.503Z,7.28
2022-08-25T03:26:24.980Z,12.98
2022-08-25T03:28:51.671Z,9.25
2022-08-25T03:31:19.132Z,8.20
2022-08-25T03:33:46.108Z,7.78
2022-08-25T03:36:12.922Z,13.43
2022-08-25T03:38:41.680Z,7.68
2022-08-25T03:41:16.621Z,5.90
2022-08-25T03:43:44.029Z,6.72
2022-08-25T03:46:19.281Z,9.18
2022-08-25T03:48:46.310Z,7.00
2022-08-25T03:51:13.860Z,6.47
2022-08-25T03:53:40.382Z,6.72
2022-08-25T03:56:07.068Z,8.45
2022-08-25T03:58:34.036Z,5.47
2022-08-25T04:01:00.667Z,6.13
2022-08-25T04:03:27.392Z,5.60
2022-08-25T04:05:53.928Z,8.90
2022-08-25T04:08:22.925Z,8.13
2022-08-25T04:10:49.578Z,7.38
2022-08-25T04:13:16.109Z,6.68
2022-08-25T04:15:44.190Z,5.75
2022-08-25T04:18:14.117Z,9.57
2022-08-25T04:20:46.417Z,11.65
2022-08-25T04:23:13.402Z,9.60
2022-08-25T04:25:42.497Z,7.25
2022-08-25T04:28:10.273Z,9.68
2022-08-25T04:30:41.704Z,8.18
2022-08-25T04:33:08.261Z,4.85
2022-08-25T04:35:35.628Z,6.97
2022-08-25T04:38:02.794Z,10.40
2022-08-25T04:40:29.493Z,8.95
2022-08-25T04:42:56.129Z,6.82
2022-08-25T04:45:22.766Z,3.08
2022-08-25T04:47:53.016Z,8.00
2022-08-25T04:50:21.489Z,9.32
2022-08-25T04:52:49.358Z,11.10
2022-08-25T04:55:18.185Z,8.05
2022-08-25T04:57:44.998Z,5.72
2022-08-25T05:00:12.401Z,7.43
2022-08-25T05:02:38.960Z,7.68
2022-08-25T05:05:07.046Z,6.75
2022-08-25T05:07:33.693Z,6.20
2022-08-25T05:10:00.394Z,8.07
2022-08-25T05:12:27.021Z,5.53
2022-08-25T05:14:55.677Z,6.13
2022-08-25T05:17:22.564Z,7.68
2022-08-25T05:19:49.215Z,5.28
2022-08-25T05:22:18.982Z,7.15
2022-08-25T05:24:45.606Z,6.55
2022-08-25T05:27:12.173Z,9.85
2022-08-25T05:29:38.938Z,9.45
2022-08-25T05:32:05.655Z,9.52
2022-08-25T05:34:32.251Z,8.98
2022-08-25T05:37:00.208Z,7.95
2022-08-25T05:39:27.099Z,8.05
2022-08-25T05:41:53.973Z,13.85
2022-08-25T05:44:21.518Z,9.80
2022-08-25T05:46:48.372Z,8.50
2022-08-25T05:49:15.079Z,11.68
2022-08-25T05:51:41.726Z,8.50
2022-08-25T05:54:08.605Z,10.77
2022-08-25T05:56:35.155Z,6.50
2022-08-25T05:59:04.984Z,10.45
2022-08-25T06:01:52.581Z,9.82
2022-08-25T06:04:20.345Z,9.00
2022-08-25T06:06:47.396Z,8.98
2022-08-25T06:09:13.941Z,8.57
2022-08-25T06:11:41.609Z,8.85
2022-08-25T06:14:10.573Z,5.43
2022-08-25T06:16:39.299Z,8.52
2022-08-25T06:19:07.286Z,7.85
2022-08-25T06:21:33.984Z,8.77
2022-08-25T06:24:01.644Z,8.88
2022-08-25T06:26:28.239Z,9.82
2022-08-25T06:28:54.741Z,8.40
2022-08-25T06:31:22.612Z,6.70
2022-08-25T06:33:50.238Z,7.20
2022-08-25T06:36:17.377Z,9.45
2022-08-25T06:38:43.947Z,11.90
2022-08-25T06:41:13.042Z,9.20
2022-08-25T06:43:47.402Z,7.15
2022-08-25T06:46:19.924Z,9.43
2022-08-25T06:48:46.545Z,7.78
2022-08-25T06:51:15.729Z,13.43
2022-08-25T06:53:44.241Z,10.32
2022-08-25T06:56:12.297Z,7.72
2022-08-25T06:58:39.176Z,14.35
2022-08-25T07:01:15.010Z,11.55
2022-08-25T07:03:47.487Z,7.93
2022-08-25T07:06:18.265Z,8.13
2022-08-25T07:08:46.384Z,11.77
2022-08-25T07:11:16.634Z,16.42
2022-08-25T07:13:45.332Z,11.02
2022-08-25T07:16:13.222Z,6.15
2022-08-25T07:18:39.897Z,8.90
2022-08-25T07:21:09.152Z,10.68
2022-08-25T07:23:36.982Z,8.57
2022-08-25T07:26:36.282Z,8.68
2022-08-25T07:29:31.736Z,11.15
2022-08-25T07:32:03.919Z,11.52
2022-08-25T07:34:51.877Z,8.75
2022-08-25T07:37:45.388Z,12.90
2022-08-25T07:40:08.360Z,7.85
2022-08-25T07:42:36.024Z,10.40
2022-08-25T07:45:05.509Z,11.57
2022-08-25T07:47:34.747Z,13.98
2022-08-25T07:50:01.381Z,9.18
2022-08-25T07:52:28.201Z,11.18
2022-08-25T07:54:55.202Z,13.80
2022-08-25T07:57:24.589Z,7.32
2022-08-25T07:59:51.203Z,12.45
2022-08-25T08:02:19.358Z,11.63
2022-08-25T08:04:50.911Z,13.02
2022-08-25T08:07:42.084Z,11.63
2022-08-25T08:10:42.299Z,7.82
2022-08-25T08:12:59.179Z,7.43
2022-08-25T08:15:25.984Z,10.05
2022-08-25T08:17:57.873Z,9.30
2022-08-25T08:20:25.191Z,6.97
2022-08-25T08:22:52.018Z,8.27
2022-08-25T08:25:24.252Z,8.68
2022-08-25T08:27:54.848Z,6.68
2022-08-25T08:30:23.712Z,12.48
2022-08-25T08:33:09.066Z,13.50
2022-08-25T08:35:36.629Z,7.53
2022-08-25T08:38:03.741Z,7.88
2022-08-25T08:41:15.201Z,8.52
2022-08-25T08:43:44.491Z,14.55
2022-08-25T08:46:11.367Z,7.25
2022-08-25T08:49:02.658Z,6.50
2022-08-25T08:51:44.702Z,8.25
2022-08-25T08:54:25.450Z,8.40
2022-08-25T08:57:03.936Z,8.40
2022-08-25T08:59:41.914Z,7.47
2022-08-25T09:02:39.565Z,10.07
2022-08-25T09:05:15.108Z,7.80
2022-08-25T09:08:11.819Z,7.63
2022-08-25T09:11:03.331Z,14.43
2022-08-25T09:13:41.824Z,10.80
2022-08-25T09:16:43.243Z,11.30
2022-08-25T09:19:24.705Z,12.20
2022-08-25T09:22:02.166Z,10.20
2022-08-25T09:24:41.535Z,20.00
2022-08-25T09:27:31.872Z,21.20
2022-08-25T09:30:01.050Z,7.80
2022-08-25T09:32:36.139Z,10.75
2022-08-25T09:35:04.616Z,10.70
2022-08-25T09:37:31.208Z,11.88
2022-08-25T09:39:58.975Z,21.58
2022-08-25T09:42:50.338Z,7.50
2022-08-25T09:45:43.985Z,10.50
2022-08-25T09:48:28.749Z,7.50
2022-08-25T09:51:10.464Z,11.57
2022-08-25T09:53:48.538Z,14.02
2022-08-25T09:56:21.674Z,11.57
2022-08-25T09:58:49.184Z,8.23
2022-08-25T10:01:20.731Z,8.93
2022-08-25T10:04:05.668Z,14.00
2022-08-25T10:06:45.179Z,7.93
2022-08-25T10:09:23.785Z,11.05
2022-08-25T10:11:57.471Z,9.95
2022-08-25T10:14:36.548Z,10.70
2022-08-25T10:17:27.388Z,9.23
2022-08-25T10:20:13.159Z,13.43
2022-08-25T10:22:41.755Z,10.95
2022-08-25T10:25:16.129Z,6.97
2022-08-25T10:27:58.915Z,10.35
2022-08-25T10:30:34.008Z,11.38
2022-08-25T10:33:12.770Z,11.95
2022-08-25T10:35:57.174Z,13.55
2022-08-25T10:38:36.333Z,11.65
2022-08-25T10:41:10.287Z,10.75
2022-08-25T10:43:48.070Z,15.27
2022-08-25T10:46:37.940Z,8.27
2022-08-25T10:49:16.852Z,19.13
2022-08-25T10:52:01.189Z,12.30
2022-08-25T10:54:39.629Z,12.80
2022-08-25T10:57:13.147Z,9.23
2022-08-25T11:00:02.076Z,10.55
2022-08-25T11:02:54.537Z,11.85
2022-08-25T11:05:32.281Z,10.93
2022-08-25T11:08:31.026Z,13.27
2022-08-25T11:11:09.651Z,8.95
2022-08-25T11:14:12.661Z,15.30
2022-08-25T11:16:48.748Z,17.20
2022-08-25T11:19:39.019Z,10.70
2022-08-25T11:22:33.450Z,17.77
2022-08-25T11:27:52.347Z,9.32
2022-08-25T11:30:19.867Z,14.48
2022-08-25T11:32:51.643Z,11.93
2022-08-25T11:35:44.776Z,8.57
2022-08-25T11:38:29.820Z,9.40
2022-08-25T11:41:11.627Z,11.57
2022-08-25T11:44:09.478Z,11.18
2022-08-25T11:46:51.249Z,8.75
2022-08-25T11:49:42.484Z,11.55
2022-08-25T11:52:35.696Z,18.00
2022-08-25T11:55:40.067Z,7.60
2022-08-25T11:58:22.169Z,6.35
2022-08-25T12:00:48.870Z,16.70
2022-08-25T12:03:34.422Z,11.50
2022-08-25T12:06:22.527Z,12.90
2022-08-25T12:09:19.380Z,8.48
2022-08-25T12:11:52.057Z,10.95
2022-08-25T12:14:28.163Z,9.07
2022-08-25T12:16:55.141Z,10.73
2022-08-25T12:19:38.099Z,10.07
2022-08-25T12:22:04.836Z,14.55
2022-08-25T12:24:56.179Z,13.90
2022-08-25T12:27:33.512Z,12.85
2022-08-25T12:30:36.650Z,8.48
2022-08-25T12:33:22.028Z,9.73
2022-08-25T12:36:04.902Z,6.20
2022-08-25T12:38:50.844Z,8.65
2022-08-25T12:41:26.413Z,10.27
2022-08-25T12:44:08.848Z,7.72
2022-08-25T12:46:39.417Z,11.20
2022-08-25T12:49:15.366Z,8.60
2022-08-25T12:51:54.204Z,7.15
2022-08-25T12:54:36.506Z,5.80
2022-08-25T12:57:41.010Z,7.45
2022-08-25T13:03:53.034Z,11.45
2022-08-25T13:06:46.657Z,9.02
2022-08-25T13:09:41.099Z,12.90
2022-08-25T13:12:16.439Z,5.65
2022-08-25T13:14:44.639Z,8.25
2022-08-25T13:17:12.118Z,11.07
2022-08-25T13:19:38.737Z,5.35
2022-08-25T13:22:17.730Z,7.10
2022-08-25T13:24:47.479Z,5.50
2022-08-25T13:27:27.983Z,16.70
2022-08-25T13:29:59.852Z,13.07
2022-08-25T13:32:36.623Z,9.48
2022-08-25T13:35:23.955Z,12.15
2022-08-25T13:37:53.959Z,10.27
2022-08-25T13:40:24.497Z,13.68
2022-08-25T13:42:59.718Z,9.13
2022-08-25T13:45:31.871Z,7.32
2022-08-25T13:47:58.957Z,9.77
2022-08-25T13:50:26.437Z,9.60
2022-08-25T13:52:56.521Z,9.15
2022-08-25T13:55:27.572Z,7.68
2022-08-25T13:57:57.758Z,11.95
2022-08-25T14:01:23.469Z,7.20
2022-08-25T14:04:21.505Z,9.43
2022-08-25T14:06:49.273Z,9.73
2022-08-25T14:09:18.462Z,7.97
2022-08-25T14:11:58.572Z,8.43
2022-08-25T14:14:25.116Z,10.07
2022-08-25T14:17:00.788Z,10.43
2022-08-25T14:19:30.472Z,6.03
2022-08-25T14:22:02.051Z,7.95
2022-08-25T14:24:39.210Z,5.38
2022-08-25T14:27:07.485Z,8.02
2022-08-25T14:29:52.766Z,6.68
2022-08-25T14:32:19.859Z,7.60
2022-08-25T14:34:46.903Z,5.97
2022-08-25T14:37:17.789Z,7.53
2022-08-25T14:39:45.081Z,4.05
2022-08-25T14:42:13.566Z,4.90
2022-08-25T14:44:40.295Z,12.82
2022-08-25T14:47:08.478Z,10.48
2022-08-25T14:49:40.819Z,5.03
2022-08-25T14:52:19.262Z,9.73
2022-08-25T14:54:49.269Z,8.02
2022-08-25T14:57:16.479Z,13.18
2022-08-25T14:59:43.492Z,8.07
2022-08-25T15:02:14.274Z,7.35
2022-08-25T15:04:48.931Z,6.97
2022-08-25T15:07:37.086Z,7.43
2022-08-25T15:10:08.373Z,5.25
2022-08-25T15:12:46.923Z,5.70
2022-08-25T15:15:15.049Z,8.02
2022-08-25T15:17:44.457Z,8.32
2022-08-25T15:20:12.399Z,6.03
2022-08-25T15:22:41.793Z,6.20
2022-08-25T15:25:09.248Z,5.15
2022-08-25T15:27:36.760Z,8.32
2022-08-25T15:30:05.470Z,4.70
2022-08-25T15:32:32.093Z,2.63
2022-08-25T15:34:59.389Z,6.47
2022-08-25T15:37:26.099Z,5.88
2022-08-25T15:39:52.718Z,7.68
2022-08-25T15:42:19.932Z,5.10
2022-08-25T15:44:53.308Z,5.45
2022-08-25T15:47:21.201Z,3.63
2022-08-25T15:49:47.862Z,4.13
2022-08-25T15:52:14.521Z,4.95
2022-08-25T15:54:41.447Z,5.70
2022-08-25T15:57:10.547Z,1.65
2022-08-25T15:59:41.132Z,4.72
2022-08-25T16:02:15.154Z,2.63
2022-08-25T16:07:09.604Z,6.90
2022-08-25T16:09:41.931Z,4.78
2022-08-25T16:12:08.942Z,1.90
2022-08-25T16:14:37.758Z,5.15
2022-08-25T16:17:05.480Z,3.72
2022-08-25T16:19:32.478Z,4.13
2022-08-25T16:22:00.542Z,7.20
2022-08-25T16:24:27.300Z,3.97
2022-08-25T16:26:55.880Z,5.60
2022-08-25T16:29:23.310Z,5.32
2022-08-25T16:31:53.527Z,5.53
2022-08-25T16:34:22.363Z,2.95
2022-08-25T16:36:52.329Z,2.55
2022-08-25T16:39:20.679Z,3.88
2022-08-25T16:41:47.785Z,5.70
2022-08-25T16:44:15.058Z,4.75
2022-08-25T16:46:44.324Z,5.13
2022-08-25T16:49:12.352Z,4.40
2022-08-25T16:51:40.099Z,4.18
2022-08-25T16:54:27.795Z,3.67
2022-08-25T16:56:55.553Z,5.00
2022-08-25T16:59:23.586Z,1.95
2022-08-25T17:01:51.469Z,3.30
2022-08-25T17:04:18.327Z,3.55
2022-08-25T17:06:49.569Z,5.85
2022-08-25T17:09:23.064Z,4.53
2022-08-25T17:11:52.291Z,2.50
2022-08-25T17:14:21.696Z,7.72
2022-08-25T17:16:48.688Z,2.92
2022-08-25T17:19:18.602Z,2.47
2022-08-25T17:21:49.901Z,2.60
2022-08-25T17:24:17.762Z,3.03
2022-08-25T17:26:47.292Z,1.75
2022-08-25T17:29:17.702Z,3.90
2022-08-25T17:31:48.432Z,3.72
2022-08-25T17:34:23.003Z,5.20
2022-08-25T17:36:50.776Z,5.22
2022-08-25T17:39:19.746Z,3.35
2022-08-25T17:41:49.553Z,4.28
2022-08-25T17:44:18.092Z,5.30
2022-08-25T17:46:45.079Z,2.70
2022-08-25T17:49:15.503Z,3.95
2022-08-25T17:51:42.662Z,3.78
2022-08-25T17:54:09.618Z,4.72
2022-08-25T17:56:37.672Z,3.95
2022-08-25T17:59:04.346Z,1.83
2022-08-25T18:01:40.544Z,2.15
2022-08-25T18:04:14.255Z,6.85
2022-08-25T18:06:45.392Z,4.90
2022-08-25T18:09:12.393Z,3.35
2022-08-25T18:11:39.054Z,4.57
2022-08-25T18:14:05.725Z,2.70
2022-08-25T18:16:32.809Z,2.38
2022-08-25T18:19:00.811Z,4.13
2022-08-25T18:21:30.597Z,4.10
2022-08-25T18:23:57.449Z,4.18
2022-08-25T18:26:25.494Z,5.63
2022-08-25T18:28:52.201Z,1.83
2022-08-25T18:31:19.790Z,3.42
2022-08-25T18:33:46.732Z,1.55
2022-08-25T18:36:13.887Z,2.88
2022-08-25T18:39:00.414Z,3.55
2022-08-25T18:41:33.013Z,4.60
2022-08-25T18:43:59.550Z,4.53
2022-08-25T18:46:26.112Z,1.65
2022-08-25T18:48:53.301Z,2.63
2022-08-25T18:51:23.239Z,2.38
2022-08-25T18:53:54.477Z,3.20
2022-08-25T18:56:25.946Z,5.55
2022-08-25T18:58:52.504Z,2.83
2022-08-25T19:01:20.075Z,2.70
2022-08-25T19:03:49.214Z,3.05
2022-08-25T19:06:17.210Z,5.15
2022-08-25T19:08:46.365Z,1.67
2022-08-25T19:11:13.093Z,4.65
2022-08-25T19:13:40.281Z,5.13
2022-08-25T19:16:30.680Z,6.90
2022-08-25T19:18:57.557Z,5.78
2022-08-25T19:21:24.962Z,3.33
2022-08-25T19:23:53.088Z,2.92
2022-08-25T19:26:20.260Z,1.77
2022-08-25T19:28:49.462Z,2.13
2022-08-25T19:31:24.861Z,3.38
2022-08-25T19:33:53.981Z,5.07
2022-08-25T19:36:24.276Z,3.50
2022-08-25T19:38:58.523Z,8.00
2022-08-25T19:41:27.404Z,1.88
2022-08-25T19:43:56.647Z,1.58
2022-08-25T19:46:32.639Z,5.88
2022-08-25T19:49:07.211Z,5.65
2022-08-25T19:51:36.396Z,2.75
2022-08-25T19:54:03.252Z,0.88
2022-08-25T19:56:31.153Z,3.90
2022-08-25T19:58:57.740Z,3.80
2022-08-25T20:01:24.802Z,3.42
2022-08-25T20:03:52.135Z,5.18
2022-08-25T20:06:19.117Z,0.93
2022-08-25T20:08:46.012Z,2.17
2022-08-25T20:11:12.626Z,1.95
2022-08-25T20:13:39.310Z,3.97
2022-08-25T20:16:06.193Z,2.60
2022-08-25T20:18:32.827Z,3.63
2022-08-25T20:21:01.595Z,4.30
2022-08-25T20:23:46.478Z,3.30
2022-08-25T20:26:13.301Z,3.53
2022-08-25T20:28:42.146Z,1.75
2022-08-25T20:31:09.154Z,2.92
2022-08-25T20:33:36.074Z,2.55
2022-08-25T20:36:04.742Z,3.67
2022-08-25T20:38:32.032Z,3.65
2022-08-25T20:41:00.729Z,4.85
2022-08-25T20:43:29.571Z,3.80
2022-08-25T20:46:00.780Z,2.50
2022-08-25T20:48:27.964Z,2.95
2022-08-25T20:50:57.802Z,2.35
2022-08-25T20:53:26.174Z,3.38
2022-08-25T20:55:52.739Z,5.20
2022-08-25T20:58:20.361Z,4.18
2022-08-25T21:00:47.477Z,3.05
2022-08-25T21:03:14.138Z,6.25
2022-08-25T21:05:42.232Z,10.30
2022-08-25T21:08:10.206Z,6.15
2022-08-25T21:10:37.515Z,3.40
2022-08-25T21:13:04.121Z,5.72
2022-08-25T21:15:31.433Z,1.90
2022-08-25T21:17:59.034Z,6.28
2022-08-25T21:20:26.206Z,3.45
2022-08-25T21:22:53.291Z,7.60
2022-08-25T21:25:21.690Z,4.10
2022-08-25T21:27:49.157Z,3.28
2022-08-25T21:30:19.034Z,8.35
2022-08-25T21:32:53.751Z,2.75
2022-08-25T21:35:22.378Z,2.58
2022-08-25T21:37:53.337Z,6.07
2022-08-25T21:40:21.786Z,3.05
2022-08-25T21:42:49.120Z,3.97
2022-08-25T21:45:16.607Z,7.22
2022-08-25T21:47:47.769Z,4.75
2022-08-25T21:50:14.451Z,3.13
2022-08-25T21:52:42.226Z,3.90
2022-08-25T21:55:15.740Z,3.42
2022-08-25T21:57:43.021Z,4.43
2022-08-25T22:00:11.573Z,5.10
2022-08-25T22:02:38.488Z,7.15
2022-08-25T22:05:09.245Z,4.95
2022-08-25T22:07:40.437Z,7.93
2022-08-25T22:10:09.508Z,8.93
2022-08-25T22:12:45.553Z,3.50
2022-08-25T22:15:13.939Z,4.03
2022-08-25T22:17:40.776Z,5.18
2022-08-25T22:20:08.965Z,5.22
2022-08-25T22:22:36.024Z,4.72
2022-08-25T22:25:03.694Z,3.70
2022-08-25T22:27:32.191Z,7.30
2022-08-25T22:29:59.182Z,6.60
2022-08-25T22:32:26.401Z,6.40
2022-08-25T22:34:53.356Z,3.97
2022-08-25T22:37:20.668Z,4.88
2022-08-25T22:39:50.049Z,4.65
2022-08-25T22:42:18.474Z,5.15
2022-08-25T22:44:45.098Z,3.65
2022-08-25T22:47:12.780Z,3.35
2022-08-25T22:49:39.803Z,5.18
2022-08-25T22:52:07.163Z,5.72
2022-08-25T22:54:38.690Z,5.32
2022-08-25T22:57:06.903Z,3.75
2022-08-25T22:59:34.166Z,3.92
2022-08-25T23:02:01.053Z,5.47
2022-08-25T23:04:28.578Z,3.50
2022-08-25T23:06:55.291Z,6.07
2022-08-25T23:09:24.961Z,4.72
2022-08-25T23:11:53.681Z,7.78
2022-08-25T23:14:21.688Z,8.07
2022-08-25T23:16:48.522Z,8.15
2022-08-25T23:19:17.239Z,9.05
2022-08-25T23:22:04.987Z,4.15
2022-08-25T23:24:35.009Z,2.70
2022-08-25T23:27:05.215Z,5.57
2022-08-25T23:29:35.577Z,10.13
2022-08-25T23:32:04.162Z,7.07
2022-08-25T23:34:33.749Z,5.25
2022-08-25T23:37:02.865Z,7.28
2022-08-25T23:39:36.161Z,7.60
2022-08-25T23:42:08.821Z,8.27
2022-08-25T23:45:06.138Z,7.60
2022-08-25T23:48:31.572Z,2.97
2022-08-25T23:55:20.661Z,5.07
2022-08-25T23:58:10.703Z,7.20
